createdAt,value
2018-02-17T00:00:35.945Z,0
2018-02-17T00:01:16.485Z,0
2018-02-17T00:01:57.056Z,0
2018-02-17T00:02:37.596Z,0
2018-02-17T00:03:18.142Z,0
2018-02-17T00:03:58.743Z,0
2018-02-17T00:04:39.276Z,0
2018-02-17T00:05:19.868Z,0
2018-02-17T00:06:00.427Z,0
2018-02-17T00:06:40.948Z,0
2018-02-17T00:07:21.502Z,0
2018-02-17T00:08:02.062Z,0
2018-02-17T00:08:42.609Z,0
2018-02-17T00:09:23.156Z,0
2018-02-17T00:10:03.686Z,0
2018-02-17T00:10:44.247Z,0
2018-02-17T00:11:24.786Z,0
2018-02-17T00:12:05.338Z,0
2018-02-17T00:12:45.900Z,0
2018-02-17T00:13:26.467Z,0
2018-02-17T00:14:07.014Z,0
2018-02-17T00:14:47.565Z,0
2018-02-17T00:15:28.117Z,0
2018-02-17T00:16:08.673Z,0
2018-02-17T00:16:49.220Z,0
2018-02-17T00:17:29.776Z,0
2018-02-17T00:18:10.328Z,0
2018-02-17T00:18:50.861Z,0
2018-02-17T00:19:31.389Z,0
2018-02-17T00:20:11.950Z,0
2018-02-17T00:20:52.484Z,0
2018-02-17T00:21:33.070Z,0
2018-02-17T00:22:13.663Z,0
2018-02-17T00:22:54.215Z,0
2018-02-17T00:23:34.760Z,0
2018-02-17T00:24:15.308Z,0
2018-02-17T00:24:55.862Z,0
2018-02-17T00:25:36.415Z,0
2018-02-17T00:26:16.982Z,0
2018-02-17T00:26:57.540Z,0
2018-02-17T00:27:38.079Z,0
2018-02-17T00:28:18.624Z,0
2018-02-17T00:28:59.151Z,0
2018-02-17T00:29:39.707Z,0
2018-02-17T00:30:20.280Z,0
2018-02-17T00:31:00.834Z,0
2018-02-17T00:31:41.381Z,0
2018-02-17T00:32:21.922Z,0
2018-02-17T00:33:02.487Z,0
2018-02-17T00:33:43.051Z,0
2018-02-17T00:34:23.615Z,0
2018-02-17T00:35:04.168Z,0
2018-02-17T00:35:44.711Z,0
2018-02-17T00:36:25.263Z,0
2018-02-17T00:37:05.809Z,0
2018-02-17T00:37:46.356Z,0
2018-02-17T00:38:26.907Z,0
2018-02-17T00:39:07.451Z,0
2018-02-17T00:39:48.028Z,0
2018-02-17T00:40:28.568Z,0
2018-02-17T00:41:09.116Z,0
2018-02-17T00:41:49.678Z,0
2018-02-17T00:42:30.241Z,0
2018-02-17T00:43:10.786Z,0
2018-02-17T00:43:51.344Z,0
2018-02-17T00:44:31.879Z,0
2018-02-17T00:45:12.457Z,0
2018-02-17T00:45:53.008Z,0
2018-02-17T00:46:33.617Z,0
2018-02-17T00:47:14.113Z,0
2018-02-17T00:47:54.662Z,0
2018-02-17T00:48:35.222Z,0
2018-02-17T00:49:15.762Z,0
2018-02-17T00:49:56.330Z,0
2018-02-17T00:50:36.896Z,0
2018-02-17T00:51:17.444Z,0
2018-02-17T00:51:57.995Z,0
2018-02-17T00:52:38.544Z,0
2018-02-17T00:53:19.122Z,0
2018-02-17T00:53:59.652Z,0
2018-02-17T00:54:40.208Z,0
2018-02-17T00:55:20.792Z,0
2018-02-17T00:56:01.335Z,0
2018-02-17T00:56:41.884Z,0
2018-02-17T00:57:22.464Z,0
2018-02-17T00:58:03.035Z,0
2018-02-17T00:58:43.579Z,0
2018-02-17T00:59:24.115Z,0
2018-02-17T01:00:04.669Z,0
2018-02-17T01:00:45.213Z,0
2018-02-17T01:01:25.790Z,0
2018-02-17T01:02:06.349Z,0
2018-02-17T01:02:46.893Z,0
2018-02-17T01:03:27.443Z,0
2018-02-17T01:04:08.000Z,0
2018-02-17T01:04:48.532Z,0
2018-02-17T01:05:29.099Z,0
2018-02-17T01:06:09.649Z,0
2018-02-17T01:06:50.179Z,0
2018-02-17T01:07:30.730Z,0
2018-02-17T01:08:11.296Z,0
2018-02-17T01:08:51.837Z,0
2018-02-17T01:09:32.388Z,0
2018-02-17T01:10:12.931Z,0
2018-02-17T01:10:53.463Z,0
2018-02-17T01:11:34.030Z,0
2018-02-17T01:12:14.587Z,0
2018-02-17T01:12:55.143Z,0
2018-02-17T01:13:35.693Z,0
2018-02-17T01:14:16.291Z,0
2018-02-17T01:14:56.831Z,0
2018-02-17T01:15:37.373Z,0
2018-02-17T01:16:17.906Z,0
2018-02-17T01:16:58.464Z,0
2018-02-17T01:17:39.020Z,0
2018-02-17T01:18:19.545Z,0
2018-02-17T01:19:00.101Z,0
2018-02-17T01:19:40.659Z,0
2018-02-17T01:20:21.202Z,0
2018-02-17T01:21:01.756Z,0
2018-02-17T01:21:42.308Z,0
2018-02-17T01:22:22.861Z,0
2018-02-17T01:23:03.395Z,0
2018-02-17T01:23:43.947Z,0
2018-02-17T01:24:24.500Z,0
2018-02-17T01:25:05.074Z,0
2018-02-17T01:25:45.645Z,0
2018-02-17T01:26:26.198Z,0
2018-02-17T01:27:06.755Z,0
2018-02-17T01:27:47.309Z,0
2018-02-17T01:28:27.864Z,0
2018-02-17T01:29:08.419Z,0
2018-02-17T01:29:48.973Z,0
2018-02-17T01:30:29.525Z,0
2018-02-17T01:31:10.088Z,0
2018-02-17T01:31:50.616Z,0
2018-02-17T01:32:31.167Z,0
2018-02-17T01:33:11.721Z,0
2018-02-17T01:33:52.263Z,0
2018-02-17T01:34:32.821Z,0
2018-02-17T01:35:13.400Z,0
2018-02-17T01:35:53.953Z,0
2018-02-17T01:36:34.509Z,0
2018-02-17T01:37:15.069Z,0
2018-02-17T01:37:55.621Z,0
2018-02-17T01:38:36.218Z,0
2018-02-17T01:39:16.751Z,0
2018-02-17T01:39:57.293Z,0
2018-02-17T01:40:37.829Z,0
2018-02-17T01:41:18.382Z,0
2018-02-17T01:41:58.947Z,0
2018-02-17T01:42:39.542Z,0
2018-02-17T01:43:20.094Z,0
2018-02-17T01:44:00.643Z,0
2018-02-17T01:44:41.199Z,0
2018-02-17T01:45:21.754Z,0
2018-02-17T01:46:02.296Z,0
2018-02-17T01:46:42.858Z,0
2018-02-17T01:47:23.405Z,0
2018-02-17T01:48:03.968Z,0
2018-02-17T01:48:44.565Z,0
2018-02-17T01:49:25.108Z,0
2018-02-17T01:50:05.673Z,0
2018-02-17T01:50:46.232Z,0
2018-02-17T01:51:26.782Z,0
2018-02-17T01:52:07.338Z,0
2018-02-17T01:52:47.898Z,0
2018-02-17T01:53:28.456Z,0
2018-02-17T01:54:09.762Z,0
2018-02-17T01:54:50.312Z,0
2018-02-17T01:55:30.851Z,0
2018-02-17T01:56:11.404Z,0
2018-02-17T01:56:51.955Z,0
2018-02-17T01:57:32.506Z,0
2018-02-17T01:58:13.061Z,0
2018-02-17T01:58:53.611Z,0
2018-02-17T01:59:34.175Z,0
2018-02-17T02:00:14.726Z,0
2018-02-17T02:00:55.289Z,0
2018-02-17T02:01:35.830Z,0
2018-02-17T02:02:16.375Z,0
2018-02-17T02:02:56.925Z,0
2018-02-17T02:03:37.460Z,0
2018-02-17T02:04:18.036Z,0
2018-02-17T02:04:58.575Z,0
2018-02-17T02:05:39.129Z,0
2018-02-17T02:06:19.697Z,0
2018-02-17T02:07:00.229Z,0
2018-02-17T02:07:40.786Z,0
2018-02-17T02:08:21.341Z,0
2018-02-17T02:09:01.894Z,0
2018-02-17T02:09:42.440Z,0
2018-02-17T02:10:22.993Z,0
2018-02-17T02:11:03.548Z,0
2018-02-17T02:11:44.095Z,0
2018-02-17T02:12:24.677Z,0
2018-02-17T02:13:05.238Z,0
2018-02-17T02:13:45.768Z,0
2018-02-17T02:14:26.323Z,0
2018-02-17T02:15:06.850Z,0
2018-02-17T02:15:47.410Z,0
2018-02-17T02:16:27.979Z,0
2018-02-17T02:17:08.506Z,0
2018-02-17T02:17:49.094Z,0
2018-02-17T02:18:29.652Z,0
2018-02-17T02:19:10.207Z,0
2018-02-17T02:19:50.762Z,0
2018-02-17T02:20:31.318Z,0
2018-02-17T02:21:11.860Z,0
2018-02-17T02:21:52.442Z,0
2018-02-17T02:22:32.973Z,0
2018-02-17T02:23:13.520Z,0
2018-02-17T02:23:54.091Z,0
2018-02-17T02:24:34.670Z,0
2018-02-17T02:25:15.225Z,0
2018-02-17T02:25:55.767Z,0
2018-02-17T02:26:36.316Z,0
2018-02-17T02:27:16.882Z,0
2018-02-17T02:27:57.508Z,0
2018-02-17T02:28:38.029Z,0
2018-02-17T02:29:18.562Z,0
2018-02-17T02:29:59.278Z,0
2018-02-17T02:30:39.825Z,0
2018-02-17T02:31:20.415Z,0
2018-02-17T02:32:00.984Z,0
2018-02-17T02:32:41.543Z,0
2018-02-17T02:33:22.114Z,0
2018-02-17T02:34:02.696Z,0
2018-02-17T02:34:43.242Z,0
2018-02-17T02:35:23.799Z,0
2018-02-17T02:36:04.356Z,0
2018-02-17T02:36:44.910Z,0
2018-02-17T02:37:25.464Z,0
2018-02-17T02:38:06.015Z,0
2018-02-17T02:38:46.582Z,0
2018-02-17T02:39:27.121Z,0
2018-02-17T02:40:07.666Z,0
2018-02-17T02:40:48.244Z,0
2018-02-17T02:41:28.795Z,0
2018-02-17T02:42:09.338Z,0
2018-02-17T02:42:49.897Z,0
2018-02-17T02:43:30.453Z,0
2018-02-17T02:44:11.022Z,0
2018-02-17T02:44:51.571Z,0
2018-02-17T02:45:32.136Z,0
2018-02-17T02:46:12.682Z,0
2018-02-17T02:46:53.236Z,0
2018-02-17T02:47:33.786Z,0
2018-02-17T02:48:14.339Z,0
2018-02-17T02:48:54.912Z,0
2018-02-17T02:49:35.460Z,0
2018-02-17T02:50:16.015Z,0
2018-02-17T02:50:56.565Z,0
2018-02-17T02:51:37.144Z,0
2018-02-17T02:52:17.690Z,0
2018-02-17T02:52:58.246Z,0
2018-02-17T02:53:38.830Z,0
2018-02-17T02:54:19.387Z,0
2018-02-17T02:54:59.945Z,0
2018-02-17T02:55:40.495Z,0
2018-02-17T02:56:21.063Z,0
2018-02-17T02:57:02.183Z,0
2018-02-17T02:57:42.753Z,0
2018-02-17T02:58:23.274Z,0
2018-02-17T02:59:03.832Z,0
2018-02-17T02:59:44.401Z,0
2018-02-17T03:00:25.018Z,0
2018-02-17T03:01:05.580Z,0
2018-02-17T03:01:46.144Z,0
2018-02-17T03:02:26.788Z,0
2018-02-17T03:03:07.328Z,0
2018-02-17T03:03:47.906Z,0
2018-02-17T03:04:28.477Z,0
2018-02-17T03:05:09.056Z,0
2018-02-17T03:05:49.618Z,0
2018-02-17T03:06:30.174Z,0
2018-02-17T03:07:10.733Z,0
2018-02-17T03:07:51.300Z,0
2018-02-17T03:08:31.875Z,0
2018-02-17T03:09:12.453Z,0
2018-02-17T03:09:53.020Z,0
2018-02-17T03:10:33.578Z,0
2018-02-17T03:11:14.136Z,0
2018-02-17T03:11:54.706Z,0
2018-02-17T03:12:35.382Z,0
2018-02-17T03:13:15.952Z,0
2018-02-17T03:13:56.490Z,0
2018-02-17T03:14:37.048Z,0
2018-02-17T03:15:17.675Z,0
2018-02-17T03:15:58.277Z,0
2018-02-17T03:16:38.822Z,0
2018-02-17T03:17:19.381Z,0
2018-02-17T03:17:59.948Z,0
2018-02-17T03:18:40.512Z,0
2018-02-17T03:19:21.078Z,0
2018-02-17T03:20:01.623Z,0
2018-02-17T03:20:42.178Z,0
2018-02-17T03:21:22.763Z,0
2018-02-17T03:22:03.314Z,0
2018-02-17T03:22:43.860Z,0
2018-02-17T03:23:24.450Z,0
2018-02-17T03:24:05.020Z,0
2018-02-17T03:24:45.548Z,0
2018-02-17T03:25:26.180Z,0
2018-02-17T03:26:06.746Z,0
2018-02-17T03:26:47.299Z,0
2018-02-17T03:27:27.852Z,0
2018-02-17T03:28:08.432Z,0
2018-02-17T03:28:49.078Z,0
2018-02-17T03:29:29.631Z,0
2018-02-17T03:30:10.182Z,0
2018-02-17T03:30:50.736Z,0
2018-02-17T03:31:31.299Z,0
2018-02-17T03:32:11.899Z,0
2018-02-17T03:32:52.438Z,0
2018-02-17T03:33:33.002Z,0
2018-02-17T03:34:13.557Z,0
2018-02-17T03:34:54.114Z,0
2018-02-17T03:35:34.668Z,0
2018-02-17T03:36:15.227Z,0
2018-02-17T03:36:55.776Z,0
2018-02-17T03:37:36.352Z,0
2018-02-17T03:38:16.904Z,0
2018-02-17T03:38:57.452Z,0
2018-02-17T03:39:38.022Z,0
2018-02-17T03:40:18.573Z,0
2018-02-17T03:40:59.177Z,0
2018-02-17T03:41:39.747Z,0
2018-02-17T03:42:20.327Z,0
2018-02-17T03:43:00.876Z,0
2018-02-17T03:43:41.432Z,0
2018-02-17T03:44:22.040Z,0
2018-02-17T03:45:02.585Z,0
2018-02-17T03:45:43.145Z,0
2018-02-17T03:46:23.720Z,0
2018-02-17T03:47:04.283Z,0
2018-02-17T03:47:44.855Z,0
2018-02-17T03:48:25.458Z,0
2018-02-17T03:49:05.951Z,0
2018-02-17T03:49:46.494Z,0
2018-02-17T03:50:27.042Z,0
2018-02-17T03:51:07.594Z,0
2018-02-17T03:51:48.130Z,0
2018-02-17T03:52:28.680Z,0
2018-02-17T03:53:09.231Z,0
2018-02-17T03:53:49.785Z,0
2018-02-17T03:54:30.345Z,0
2018-02-17T03:55:10.910Z,0
2018-02-17T03:55:51.461Z,0
2018-02-17T03:56:31.996Z,0
2018-02-17T03:57:12.539Z,0
2018-02-17T03:57:53.099Z,0
2018-02-17T03:58:33.655Z,0
2018-02-17T03:59:14.207Z,0
2018-02-17T03:59:54.767Z,0
2018-02-17T04:00:35.307Z,0
2018-02-17T04:01:15.853Z,0
2018-02-17T04:01:56.402Z,0
2018-02-17T04:02:36.960Z,0
2018-02-17T04:03:17.514Z,0
2018-02-17T04:03:58.071Z,0
2018-02-17T04:04:38.601Z,0
2018-02-17T04:05:19.149Z,0
2018-02-17T04:05:59.708Z,0
2018-02-17T04:06:40.257Z,0
2018-02-17T04:07:20.811Z,0
2018-02-17T04:08:01.365Z,0
2018-02-17T04:08:41.922Z,0
2018-02-17T04:09:22.522Z,0
2018-02-17T04:10:03.087Z,0
2018-02-17T04:10:43.640Z,0
2018-02-17T04:11:24.208Z,0
2018-02-17T04:12:04.776Z,0
2018-02-17T04:12:45.333Z,0
2018-02-17T04:13:26.027Z,0
2018-02-17T04:14:06.592Z,0
2018-02-17T04:14:47.142Z,0
2018-02-17T04:15:27.688Z,0
2018-02-17T04:16:08.248Z,0
2018-02-17T04:16:48.799Z,0
2018-02-17T04:17:29.362Z,0
2018-02-17T04:18:09.919Z,0
2018-02-17T04:18:50.486Z,0
2018-02-17T04:19:31.038Z,0
2018-02-17T04:20:11.624Z,0
2018-02-17T04:20:52.205Z,0
2018-02-17T04:21:32.745Z,0
2018-02-17T04:22:13.298Z,0
2018-02-17T04:22:53.843Z,0
2018-02-17T04:23:34.393Z,0
2018-02-17T04:24:14.945Z,0
2018-02-17T04:24:55.507Z,0
2018-02-17T04:25:36.097Z,0
2018-02-17T04:26:16.674Z,0
2018-02-17T04:26:57.221Z,0
2018-02-17T04:27:37.782Z,0
2018-02-17T04:28:18.323Z,0
2018-02-17T04:28:58.888Z,0
2018-02-17T04:29:39.437Z,0
2018-02-17T04:30:20.027Z,0
2018-02-17T04:31:00.540Z,0
2018-02-17T04:31:41.088Z,0
2018-02-17T04:32:21.638Z,0
2018-02-17T04:33:02.190Z,0
2018-02-17T04:33:42.745Z,0
2018-02-17T04:34:23.298Z,0
2018-02-17T04:35:03.846Z,0
2018-02-17T04:35:44.396Z,0
2018-02-17T04:36:24.935Z,0
2018-02-17T04:37:05.501Z,0
2018-02-17T04:37:46.042Z,0
2018-02-17T04:38:26.599Z,0
2018-02-17T04:39:07.158Z,0
2018-02-17T04:39:47.707Z,0
2018-02-17T04:40:28.279Z,0
2018-02-17T04:41:08.876Z,0
2018-02-17T04:41:49.566Z,0
2018-02-17T04:42:30.138Z,0
2018-02-17T04:43:10.667Z,0
2018-02-17T04:43:51.229Z,0
2018-02-17T04:44:31.772Z,0
2018-02-17T04:45:12.318Z,0
2018-02-17T04:45:52.869Z,0
2018-02-17T04:46:33.455Z,0
2018-02-17T04:47:14.020Z,0
2018-02-17T04:47:54.573Z,0
2018-02-17T04:48:35.123Z,0
2018-02-17T04:49:15.687Z,0
2018-02-17T04:49:56.224Z,0
2018-02-17T04:50:36.802Z,0
2018-02-17T04:51:17.369Z,0
2018-02-17T04:51:57.908Z,0
2018-02-17T04:52:38.469Z,0
2018-02-17T04:53:19.036Z,0
2018-02-17T04:53:59.588Z,0
2018-02-17T04:54:40.173Z,0
2018-02-17T04:55:20.685Z,0
2018-02-17T04:56:01.231Z,0
2018-02-17T04:56:41.821Z,0
2018-02-17T04:57:22.347Z,0
2018-02-17T04:58:02.916Z,0
2018-02-17T04:58:43.470Z,0
2018-02-17T04:59:24.025Z,0
2018-02-17T05:00:04.598Z,0
2018-02-17T05:00:45.171Z,0
2018-02-17T05:01:25.777Z,0
2018-02-17T05:02:06.317Z,0
2018-02-17T05:02:46.888Z,0
2018-02-17T05:03:27.441Z,0
2018-02-17T05:04:07.986Z,0
2018-02-17T05:04:48.556Z,0
2018-02-17T05:05:29.109Z,0
2018-02-17T05:06:09.685Z,0
2018-02-17T05:06:50.247Z,0
2018-02-17T05:07:30.811Z,0
2018-02-17T05:08:11.357Z,0
2018-02-17T05:08:51.906Z,0
2018-02-17T05:09:32.467Z,0
2018-02-17T05:10:13.028Z,0
2018-02-17T05:10:53.631Z,0
2018-02-17T05:11:34.189Z,0
2018-02-17T05:12:14.754Z,0
2018-02-17T05:12:55.284Z,0
2018-02-17T05:13:35.847Z,0
2018-02-17T05:14:16.528Z,0
2018-02-17T05:14:57.083Z,0
2018-02-17T05:15:37.634Z,0
2018-02-17T05:16:18.186Z,0
2018-02-17T05:16:58.726Z,0
2018-02-17T05:17:39.271Z,0
2018-02-17T05:18:19.830Z,0
2018-02-17T05:19:00.378Z,0
2018-02-17T05:19:40.944Z,0
2018-02-17T05:20:21.482Z,0
2018-02-17T05:21:02.044Z,0
2018-02-17T05:21:42.649Z,0
2018-02-17T05:22:23.203Z,0
2018-02-17T05:23:03.770Z,0
2018-02-17T05:23:44.328Z,0
2018-02-17T05:24:24.882Z,0
2018-02-17T05:25:05.445Z,0
2018-02-17T05:25:46.001Z,0
2018-02-17T05:26:26.552Z,0
2018-02-17T05:27:07.089Z,0
2018-02-17T05:27:47.655Z,0
2018-02-17T05:28:28.202Z,0
2018-02-17T05:29:08.752Z,0
2018-02-17T05:29:49.324Z,0
2018-02-17T05:30:29.883Z,0
2018-02-17T05:31:10.434Z,0
2018-02-17T05:31:51.095Z,0
2018-02-17T05:32:31.673Z,0
2018-02-17T05:33:12.234Z,0
2018-02-17T05:33:52.821Z,0
2018-02-17T05:34:33.397Z,0
2018-02-17T05:35:13.941Z,0
2018-02-17T05:35:54.494Z,0
2018-02-17T05:36:35.038Z,0
2018-02-17T05:37:15.595Z,0
2018-02-17T05:37:56.139Z,0
2018-02-17T05:38:36.696Z,0
2018-02-17T05:39:17.234Z,0
2018-02-17T05:39:57.775Z,0
2018-02-17T05:40:38.428Z,0
2018-02-17T05:41:18.978Z,0
2018-02-17T05:41:59.540Z,0
2018-02-17T05:42:40.102Z,0
2018-02-17T05:43:20.638Z,0
2018-02-17T05:44:01.472Z,0
2018-02-17T05:44:42.035Z,0
2018-02-17T05:45:22.603Z,0
2018-02-17T05:46:03.167Z,0
2018-02-17T05:46:43.797Z,0
2018-02-17T05:47:24.371Z,0
2018-02-17T05:48:05.037Z,0
2018-02-17T05:48:45.744Z,0
2018-02-17T05:49:26.286Z,0
2018-02-17T05:50:06.866Z,0
2018-02-17T05:50:47.413Z,0
2018-02-17T05:51:27.971Z,0
2018-02-17T05:52:08.563Z,0
2018-02-17T05:52:49.168Z,0
2018-02-17T05:53:29.689Z,0
2018-02-17T05:54:10.356Z,0
2018-02-17T05:54:50.886Z,0
2018-02-17T05:55:31.436Z,0
2018-02-17T05:56:11.982Z,0
2018-02-17T05:56:52.530Z,0
2018-02-17T05:58:13.661Z,0
2018-02-17T05:58:54.242Z,0
2018-02-17T05:59:34.813Z,0
2018-02-17T06:00:15.349Z,0
2018-02-17T06:00:55.922Z,0
2018-02-17T06:01:36.548Z,0
2018-02-17T06:02:17.075Z,0
2018-02-17T06:02:57.642Z,0
2018-02-17T06:03:38.253Z,0
2018-02-17T06:04:18.860Z,0
2018-02-17T06:04:59.374Z,0
2018-02-17T06:05:39.931Z,0
2018-02-17T06:06:20.480Z,0
2018-02-17T06:07:01.026Z,0
2018-02-17T06:07:41.604Z,0
2018-02-17T06:08:22.146Z,0
2018-02-17T06:09:02.713Z,0
2018-02-17T06:09:43.300Z,0
2018-02-17T06:10:23.875Z,0
2018-02-17T06:11:04.434Z,0
2018-02-17T06:11:44.974Z,0
2018-02-17T06:12:25.705Z,0
2018-02-17T06:13:06.287Z,0
2018-02-17T06:13:46.860Z,0
2018-02-17T06:14:27.405Z,0
2018-02-17T06:15:07.944Z,0
2018-02-17T06:15:48.500Z,0
2018-02-17T06:16:29.047Z,0
2018-02-17T06:17:09.609Z,0
2018-02-17T06:17:50.156Z,0
2018-02-17T06:18:30.709Z,0
2018-02-17T06:19:11.279Z,0
2018-02-17T06:19:51.853Z,0
2018-02-17T06:20:32.406Z,0
2018-02-17T06:21:12.988Z,0
2018-02-17T06:21:53.541Z,0
2018-02-17T06:22:34.122Z,0
2018-02-17T06:23:14.687Z,0
2018-02-17T06:23:55.236Z,0
2018-02-17T06:24:35.788Z,0
2018-02-17T06:25:16.326Z,0
2018-02-17T06:25:56.875Z,0
2018-02-17T06:26:37.453Z,0
2018-02-17T06:27:18.153Z,0
2018-02-17T06:27:58.734Z,0
2018-02-17T06:28:39.281Z,0
2018-02-17T06:29:19.836Z,0
2018-02-17T06:30:00.382Z,0
2018-02-17T06:30:40.939Z,0
2018-02-17T06:31:21.504Z,0
2018-02-17T06:32:02.052Z,0
2018-02-17T06:32:42.603Z,0
2018-02-17T06:33:23.150Z,0
2018-02-17T06:34:03.695Z,0
2018-02-17T06:34:44.250Z,0
2018-02-17T06:35:24.808Z,0
2018-02-17T06:36:05.345Z,0
2018-02-17T06:36:46.632Z,0
2018-02-17T06:37:27.171Z,0
2018-02-17T06:38:07.769Z,0
2018-02-17T06:38:48.302Z,0
2018-02-17T06:39:29.021Z,0
2018-02-17T06:40:09.596Z,0
2018-02-17T06:40:50.152Z,0
2018-02-17T06:41:30.736Z,5
2018-02-17T06:42:11.309Z,5
2018-02-17T06:42:51.998Z,5
2018-02-17T06:43:32.554Z,5
2018-02-17T06:44:13.106Z,5
2018-02-17T06:44:53.666Z,5
2018-02-17T06:45:34.219Z,5
2018-02-17T06:46:14.778Z,5
2018-02-17T06:46:55.308Z,5
2018-02-17T06:47:35.879Z,5
2018-02-17T06:48:16.436Z,5
2018-02-17T06:48:57.024Z,5
2018-02-17T06:49:37.590Z,5
2018-02-17T06:50:18.153Z,5
2018-02-17T06:50:58.709Z,5
2018-02-17T06:51:39.255Z,5
2018-02-17T06:52:19.806Z,5
2018-02-17T06:53:00.359Z,5
2018-02-17T06:53:40.920Z,5
2018-02-17T06:54:21.468Z,5
2018-02-17T06:55:02.017Z,5
2018-02-17T06:55:42.568Z,5
2018-02-17T06:56:23.115Z,5
2018-02-17T06:57:03.682Z,5
2018-02-17T06:57:44.238Z,5
2018-02-17T06:58:24.774Z,5
2018-02-17T06:59:05.326Z,5
2018-02-17T06:59:45.897Z,5
2018-02-17T07:00:26.444Z,5
2018-02-17T07:01:06.989Z,5
2018-02-17T07:01:47.550Z,5
2018-02-17T07:02:28.108Z,10
2018-02-17T07:03:08.651Z,10
2018-02-17T07:03:49.198Z,10
2018-02-17T07:04:29.738Z,10
2018-02-17T07:05:10.550Z,10
2018-02-17T07:05:51.109Z,10
2018-02-17T07:06:31.865Z,10
2018-02-17T07:07:12.422Z,10
2018-02-17T07:07:53.056Z,10
2018-02-17T07:08:33.610Z,10
2018-02-17T07:09:14.163Z,10
2018-02-17T07:09:54.714Z,10
2018-02-17T07:10:35.279Z,10
2018-02-17T07:11:16.018Z,10
2018-02-17T07:11:56.611Z,10
2018-02-17T07:12:37.262Z,10
2018-02-17T07:13:17.928Z,10
2018-02-17T07:17:02.937Z,10
2018-02-17T07:17:43.655Z,10
2018-02-17T07:18:24.221Z,10
2018-02-17T07:19:04.793Z,10
2018-02-17T07:19:45.312Z,10
2018-02-17T07:20:25.865Z,10
2018-02-17T07:21:06.413Z,10
2018-02-17T07:21:46.974Z,10
2018-02-17T07:22:27.535Z,15
2018-02-17T07:23:08.083Z,15
2018-02-17T07:23:48.634Z,15
2018-02-17T07:24:29.193Z,15
2018-02-17T07:25:09.753Z,15
2018-02-17T07:25:50.297Z,15
2018-02-17T07:26:30.844Z,15
2018-02-17T07:27:11.399Z,15
2018-02-17T07:27:51.944Z,15
2018-02-17T07:28:32.496Z,15
2018-02-17T07:29:13.077Z,15
2018-02-17T07:29:53.638Z,15
2018-02-17T07:30:34.357Z,15
2018-02-17T07:31:14.923Z,15
2018-02-17T07:31:55.494Z,15
2018-02-17T07:32:36.051Z,15
2018-02-17T07:33:16.653Z,15
2018-02-17T07:33:57.187Z,15
2018-02-17T07:34:37.723Z,15
2018-02-17T07:35:18.511Z,15
2018-02-17T07:35:59.053Z,15
2018-02-17T07:36:39.619Z,15
2018-02-17T07:37:20.141Z,15
2018-02-17T07:38:00.727Z,15
2018-02-17T07:38:41.442Z,15
2018-02-17T07:39:22.348Z,15
2018-02-17T07:40:02.983Z,15
2018-02-17T07:40:44.954Z,15
2018-02-17T07:41:25.488Z,15
2018-02-17T07:42:06.030Z,15
2018-02-17T07:42:46.717Z,15
2018-02-17T07:43:28.237Z,15
2018-02-17T07:44:08.770Z,15
2018-02-17T07:44:50.567Z,15
2018-02-17T07:45:31.228Z,15
2018-02-17T07:46:11.772Z,20
2018-02-17T07:46:52.378Z,20
2018-02-17T07:47:32.985Z,20
2018-02-17T07:48:13.579Z,20
2018-02-17T07:48:54.146Z,20
2018-02-17T07:49:34.683Z,20
2018-02-17T07:50:15.233Z,20
2018-02-17T07:50:55.810Z,20
2018-02-17T07:51:36.510Z,20
2018-02-17T07:52:17.030Z,20
2018-02-17T07:52:57.677Z,20
2018-02-17T07:53:38.224Z,20
2018-02-17T07:54:18.795Z,20
2018-02-17T07:54:59.542Z,20
2018-02-17T07:55:40.733Z,20
2018-02-17T07:56:21.414Z,20
2018-02-17T07:57:01.978Z,20
2018-02-17T07:57:42.539Z,20
2018-02-17T07:58:23.077Z,20
2018-02-17T07:59:03.802Z,20
2018-02-17T07:59:44.340Z,20
2018-02-17T08:00:25.412Z,20
2018-02-17T08:01:05.942Z,20
2018-02-17T08:01:46.565Z,20
2018-02-17T08:02:27.112Z,20
2018-02-17T08:03:07.730Z,20
2018-02-17T08:03:48.276Z,25
2018-02-17T08:04:28.822Z,20
2018-02-17T08:05:09.386Z,20
2018-02-17T08:05:49.914Z,20
2018-02-17T08:06:30.512Z,25
2018-02-17T08:07:11.066Z,25
2018-02-17T08:07:58.316Z,25
2018-02-17T08:08:38.871Z,25
2018-02-17T08:09:19.441Z,25
2018-02-17T08:09:59.979Z,25
2018-02-17T08:10:40.500Z,25
2018-02-17T08:11:21.096Z,25
2018-02-17T08:12:01.747Z,25
2018-02-17T08:12:42.432Z,25
2018-02-17T08:13:23.003Z,25
2018-02-17T08:14:03.571Z,20
2018-02-17T08:14:44.456Z,20
2018-02-17T08:15:25.242Z,20
2018-02-17T08:16:05.887Z,25
2018-02-17T08:16:46.481Z,25
2018-02-17T08:17:27.041Z,25
2018-02-17T08:18:07.640Z,25
2018-02-17T08:18:49.352Z,25
2018-02-17T08:19:30.080Z,25
2018-02-17T08:20:10.655Z,25
2018-02-17T08:20:51.383Z,25
2018-02-17T08:21:32.051Z,25
2018-02-17T08:22:12.856Z,25
2018-02-17T08:22:55.497Z,25
2018-02-17T08:23:36.642Z,25
2018-02-17T08:24:17.621Z,25
2018-02-17T08:24:58.223Z,25
2018-02-17T08:25:38.860Z,25
2018-02-17T08:26:19.404Z,25
2018-02-17T08:27:00.058Z,25
2018-02-17T08:27:40.606Z,25
2018-02-17T08:28:21.177Z,25
2018-02-17T08:29:01.727Z,25
2018-02-17T08:29:42.298Z,25
2018-02-17T08:30:22.869Z,25
2018-02-17T08:31:03.434Z,25
2018-02-17T08:31:44.025Z,25
2018-02-17T08:32:24.659Z,25
2018-02-17T08:33:05.281Z,25
2018-02-17T08:33:45.848Z,30
2018-02-17T08:34:26.391Z,30
2018-02-17T08:35:06.960Z,30
2018-02-17T08:35:47.549Z,30
2018-02-17T08:36:28.314Z,30
2018-02-17T08:37:08.920Z,30
2018-02-17T08:37:49.510Z,30
2018-02-17T08:38:30.131Z,25
2018-02-17T08:39:11.394Z,25
2018-02-17T08:39:52.260Z,25
2018-02-17T08:40:33.205Z,30
2018-02-17T08:41:14.519Z,30
2018-02-17T08:41:56.011Z,30
2018-02-17T08:42:37.129Z,30
2018-02-17T08:43:17.687Z,30
2018-02-17T08:43:58.288Z,30
2018-02-17T08:44:38.939Z,30
2018-02-17T08:45:20.798Z,30
2018-02-17T08:46:01.374Z,35
2018-02-17T08:46:41.933Z,35
2018-02-17T08:47:22.502Z,35
2018-02-17T08:48:03.159Z,35
2018-02-17T08:48:44.208Z,35
2018-02-17T08:49:24.851Z,35
2018-02-17T08:50:05.436Z,35
2018-02-17T08:50:45.985Z,35
2018-02-17T08:51:26.541Z,35
2018-02-17T08:52:07.125Z,35
2018-02-17T08:52:47.670Z,35
2018-02-17T08:53:28.367Z,35
2018-02-17T08:54:08.986Z,35
2018-02-17T08:54:49.572Z,35
2018-02-17T08:55:30.225Z,40
2018-02-17T08:56:10.897Z,35
2018-02-17T08:56:51.449Z,35
2018-02-17T09:02:08.620Z,30
2018-02-17T09:02:50.168Z,30
2018-02-17T09:03:31.589Z,30
2018-02-17T09:04:12.550Z,35
2018-02-17T09:04:53.117Z,35
2018-02-17T09:05:33.688Z,35
2018-02-17T09:06:14.305Z,35
2018-02-17T09:06:54.878Z,40
2018-02-17T09:07:35.438Z,40
2018-02-17T09:08:16.009Z,40
2018-02-17T09:08:56.539Z,40
2018-02-17T09:09:37.094Z,40
2018-02-17T09:10:17.640Z,45
2018-02-17T09:10:58.249Z,45
2018-02-17T09:11:38.851Z,45
2018-02-17T09:12:19.473Z,45
2018-02-17T09:13:00.197Z,45
2018-02-17T09:13:40.817Z,45
2018-02-17T09:14:21.434Z,45
2018-02-17T09:15:01.995Z,45
2018-02-17T09:15:42.527Z,40
2018-02-17T09:16:29.757Z,40
2018-02-17T09:17:10.336Z,45
2018-02-17T09:17:50.995Z,40
2018-02-17T09:18:31.537Z,45
2018-02-17T09:19:12.075Z,45
2018-02-17T09:19:52.712Z,45
2018-02-17T09:23:37.705Z,45
2018-02-17T09:24:18.314Z,45
2018-02-17T09:24:58.914Z,45
2018-02-17T09:25:39.574Z,45
2018-02-17T09:26:20.168Z,45
2018-02-17T09:27:00.787Z,45
2018-02-17T09:27:41.370Z,45
2018-02-17T09:28:21.912Z,45
2018-02-17T09:29:02.499Z,45
2018-02-17T09:29:43.021Z,45
2018-02-17T09:30:23.712Z,45
2018-02-17T09:31:04.303Z,45
2018-02-17T09:31:44.885Z,45
2018-02-17T09:32:25.468Z,45
2018-02-17T09:33:06.060Z,45
2018-02-17T09:33:46.608Z,45
2018-02-17T09:34:27.173Z,45
2018-02-17T09:35:07.911Z,45
2018-02-17T09:35:48.642Z,45
2018-02-17T09:36:31.431Z,45
2018-02-17T09:37:12.528Z,45
2018-02-17T09:37:55.543Z,45
2018-02-17T09:38:36.174Z,45
2018-02-17T09:39:16.719Z,45
2018-02-17T09:39:57.264Z,45
2018-02-17T09:40:37.808Z,45
2018-02-17T09:41:18.413Z,45
2018-02-17T09:41:59.129Z,45
2018-02-17T09:42:39.738Z,45
2018-02-17T09:43:20.586Z,45
2018-02-17T09:44:01.354Z,45
2018-02-17T09:44:41.903Z,45
2018-02-17T09:45:22.467Z,45
2018-02-17T09:46:03.633Z,45
2018-02-17T09:46:44.301Z,45
2018-02-17T09:47:28.252Z,50
2018-02-17T09:48:12.206Z,50
2018-02-17T09:48:54.279Z,50
2018-02-17T09:49:37.304Z,50
2018-02-17T09:50:18.335Z,50
2018-02-17T09:51:01.694Z,50
2018-02-17T09:51:43.135Z,50
2018-02-17T09:52:24.884Z,50
2018-02-17T09:53:06.730Z,50
2018-02-17T09:53:47.439Z,50
2018-02-17T09:54:29.020Z,50
2018-02-17T09:55:11.724Z,50
2018-02-17T09:55:52.321Z,50
2018-02-17T09:56:32.987Z,50
2018-02-17T09:57:14.255Z,50
2018-02-17T09:57:57.030Z,50
2018-02-17T09:58:37.920Z,50
2018-02-17T09:59:21.231Z,50
2018-02-17T10:00:02.514Z,50
2018-02-17T10:00:43.391Z,50
2018-02-17T10:01:24.248Z,55
2018-02-17T10:02:05.001Z,55
2018-02-17T10:02:45.805Z,55
2018-02-17T10:03:26.806Z,55
2018-02-17T10:04:07.671Z,55
2018-02-17T10:04:50.821Z,55
2018-02-17T10:05:32.994Z,55
2018-02-17T10:06:13.866Z,55